DY4272 / EI-FJJ 7700 Squawk Report (10th of November, 2019)

Aircraft B738 Reg No. EI-FJJ Age 3 years old
Model 737 Jet engines 2 First flight 23-02-16
Registered 08-03-16 Rollout N/A Delivered 08-03-16
Construction No. 41148 Line No. 5807 Series 8JP
ADSHEX 4CA5B5 Airline name Norwegian Air International Owner N/A
Airfield based Oslo-Gardermoen~Akershus~LN First tracked 2017-07-13 09:28:00
Time Lat Lon Altitude Heading Speed Vertical Rate
2019-11-10 20:39:22 GMT 48.474518 -5.475558 10,250 99 398 -3200
2019-11-10 20:38:19 GMT 48.495235 -5.667644 14,125 98 444 -3456
2019-11-10 20:38:15 GMT 48.495235 -5.667644 12,975 98 436 -3520
2019-11-10 20:38:05 GMT 48.498413 -5.698031 13,550 98 438 -3456
2019-11-10 20:37:55 GMT 48.501472 -5.727852 14,100 99 440 -3328
2019-11-10 20:37:43 GMT 48.505196 -5.763341 14,725 98 443 -3392
2019-11-10 20:37:34 GMT 48.508083 -5.791096 15,225 98 445 -3392
2019-11-10 20:37:25 GMT 48.511230 -5.820852 15,775 98 447 -3392
2019-11-10 20:37:14 GMT 48.514416 -5.851376 16,225 99 453 -2432
2019-11-10 20:37:03 GMT 48.518139 -5.886720 16,750 98 458 -3008
2019-11-10 20:36:54 GMT 48.521259 -5.916499 17,200 98 463 -2944
2019-11-10 20:36:43 GMT 48.524750 -5.950398 17,700 98 469 -2752
2019-11-10 20:36:37 GMT 48.526657 -5.968886 17,950 98 479 -3392
2019-11-10 20:36:33 GMT 48.527962 -5.981550 18,150 98 474 -3200
2019-11-10 20:36:23 GMT 48.531406 -6.014942 18,675 98 478 -3392
2019-11-10 20:36:14 GMT 48.534622 -6.046354 19,150 98 485 -2112
2019-11-10 20:36:03 GMT 48.538063 -6.080933 19,550 98 494 -3008
2019-11-10 20:35:54 GMT 48.541672 -6.117765 20,150 98 496 -3520
2019-11-10 20:35:43 GMT 48.544876 -6.149597 20,675 98 500 -3648
2019-11-10 20:35:33 GMT 48.548538 -6.185796 21,300 98 502 -3392
2019-11-10 20:35:23 GMT 48.552063 -6.220163 21,850 98 505 -3456
2019-11-10 20:35:13 GMT 48.555752 -6.255341 22,400 99 509 -3200
2019-11-10 20:35:03 GMT 48.559479 -6.290829 22,875 98 514 -2304
2019-11-10 20:34:53 GMT 48.563141 -6.325942 23,250 98 519 -2624
2019-11-10 20:34:42 GMT 48.566940 -6.363267 23,675 98 523 -2048
2019-11-10 20:34:32 GMT 48.570698 -6.400548 24,000 98 530 -1600
2019-11-10 20:34:23 GMT 48.574402 -6.436791 24,375 98 533 -3904
2019-11-10 20:34:12 GMT 48.578007 -6.472899 25,075 98 526 -4288
2019-11-10 20:34:02 GMT 48.581818 -6.510949 25,700 98 523 -2304
2019-11-10 20:33:52 GMT 48.585342 -6.546302 25,950 98 524 -128
2019-11-10 20:33:42 GMT 48.589085 -6.583919 25,975 98 525 -256
2019-11-10 20:33:32 GMT 48.592529 -6.619046 26,025 98 527 -704
2019-11-10 20:33:22 GMT 48.596191 -6.656165 26,150 98 530 -1408
2019-11-10 20:33:11 GMT 48.599884 -6.693999 26,500 98 533 -2944
2019-11-10 20:33:01 GMT 48.603561 -6.731583 26,950 98 535 -2112
2019-11-10 20:32:52 GMT 48.607101 -6.767867 27,275 98 538 -2048
2019-11-10 20:32:41 GMT 48.610729 -6.805091 27,600 98 542 -1920
2019-11-10 20:32:34 GMT 48.613293 -6.831689 27,825 98 545 -1920
2019-11-10 20:32:31 GMT 48.614456 -6.843326 27,925 98 545 -1984
2019-11-10 20:32:21 GMT 48.618118 -6.881385 28,250 98 547 -1984
2019-11-10 20:32:11 GMT 48.621902 -6.920736 28,600 98 550 -1920
2019-11-10 20:32:01 GMT 48.625580 -6.958827 28,900 98 552 -1920
2019-11-10 20:31:54 GMT 48.628002 -6.983980 29,100 98 553 -1856
2019-11-10 20:31:50 GMT 48.629425 -6.998925 29,225 98 554 -1856
2019-11-10 20:31:46 GMT 48.630798 -7.013432 29,350 98 555 -1856
2019-11-10 20:31:41 GMT 48.633121 -7.037611 29,550 98 556 -1856
2019-11-10 20:31:37 GMT 48.634518 -7.052211 29,650 98 556 -1792
2019-11-10 20:31:30 GMT 48.636753 -7.075990 29,850 98 557 -1856
2019-11-10 20:31:20 GMT 48.640366 -7.114070 30,150 98 555 -1984
2019-11-10 20:31:10 GMT 48.644062 -7.153834 30,475 97 551 -1984
2019-11-10 20:31:00 GMT 48.647507 -7.191045 30,775 98 549 -1920
2019-11-10 20:30:49 GMT 48.651215 -7.230905 31,100 98 550 -1920
2019-11-10 20:30:42 GMT 48.653839 -7.258999 31,350 98 550 -2048
2019-11-10 20:30:39 GMT 48.654816 -7.269263 31,425 98 550 -2048
2019-11-10 20:30:35 GMT 48.656212 -7.284441 31,575 97 551 -2304
2019-11-10 20:30:30 GMT 48.658310 -7.306894 31,775 97 551 -2368
2019-11-10 20:30:20 GMT 48.661789 -7.344994 32,175 97 551 -2304
2019-11-10 20:30:10 GMT 48.665497 -7.385277 32,575 97 550 -2368
2019-11-10 20:30:05 GMT 48.666870 -7.400489 32,725 97 549 -2368
2019-11-10 20:29:59 GMT 48.668884 -7.422462 32,950 97 548 -2368
2019-11-10 20:29:55 GMT 48.670441 -7.439505 33,125 97 547 -2368
2019-11-10 20:29:49 GMT 48.672409 -7.461407 33,350 97 545 -2368
2019-11-10 20:29:44 GMT 48.674103 -7.480633 33,550 97 542 -2432
2019-11-10 20:29:39 GMT 48.675797 -7.499084 33,750 97 542 -2432
2019-11-10 20:29:29 GMT 48.679070 -7.535754 34,125 97 540 -2688
2019-11-10 20:29:25 GMT 48.680695 -7.553734 34,350 97 540 -2816
2019-11-10 20:29:19 GMT 48.682514 -7.573917 34,575 97 540 -2240
2019-11-10 20:29:14 GMT 48.684219 -7.592609 34,775 97 541 -1408
2019-11-10 20:29:08 GMT 48.686100 -7.613236 34,900 97 543 -512
2019-11-10 20:29:03 GMT 48.687866 -7.633113 34,950 97 545 -192
2019-11-10 20:28:58 GMT 48.689438 -7.650499 34,975 97 545 -192
2019-11-10 20:28:53 GMT 48.691315 -7.671626 34,975 97 547 0
2019-11-10 20:28:49 GMT 48.692802 -7.687900 35,000 97 547 -64
2019-11-10 20:28:43 GMT 48.694618 -7.708716 35,000 97 547 0
2019-11-10 20:28:39 GMT 48.696293 -7.727292 35,000 97 547 64
2019-11-10 20:28:32 GMT 48.698273 -7.749587 35,000 97 547 0
2019-11-10 20:28:28 GMT 48.699554 -7.764371 35,000 97 547 0
2019-11-10 20:28:18 GMT 48.703033 -7.803462 35,000 97 547 0
2019-11-10 20:28:08 GMT 48.706421 -7.842126 35,000 97 548 0
2019-11-10 20:28:02 GMT 48.708527 -7.866000 35,000 97 548 0
2019-11-10 20:27:58 GMT 48.709747 -7.880016 35,000 97 548 0
2019-11-10 20:27:48 GMT 48.713058 -7.917973 35,000 97 548 0
2019-11-10 20:27:38 GMT 48.716446 -7.957059 34,975 97 548 0
2019-11-10 20:27:27 GMT 48.719788 -7.995793 34,975 97 548 0
2019-11-10 20:27:17 GMT 48.722946 -8.032978 35,000 97 548 -64
2019-11-10 20:27:07 GMT 48.726227 -8.072132 35,000 97 548 -64
2019-11-10 20:26:57 GMT 48.729446 -8.110445 35,000 97 548 0
2019-11-10 20:26:47 GMT 48.732605 -8.148025 35,000 97 548 0
2019-11-10 20:26:37 GMT 48.735909 -8.187561 34,975 97 548 0
2019-11-10 20:26:27 GMT 48.739014 -8.225168 34,975 97 549 0
2019-11-10 20:26:17 GMT 48.742218 -8.263268 35,000 97 549 0
2019-11-10 20:26:05 GMT 48.745926 -8.308199 35,000 97 550 0
2019-11-10 20:25:56 GMT 48.748711 -8.341731 35,000 97 550 0
2019-11-10 20:25:46 GMT 48.751877 -8.379470 35,000 97 550 0
2019-11-10 20:25:36 GMT 48.755081 -8.418344 35,000 97 550 0
2019-11-10 20:25:26 GMT 48.758240 -8.456444 35,000 97 550 64
2019-11-10 20:25:16 GMT 48.761353 -8.494615 35,000 96 551 0
2019-11-10 20:25:10 GMT 48.763515 -8.521343 35,000 96 551 0
2019-11-10 20:25:06 GMT 48.764603 -8.534335 35,000 96 551 0
2019-11-10 20:24:58 GMT 48.766937 -8.563420 35,000 96 551 0
2019-11-10 20:24:55 GMT 48.767937 -8.575624 35,000 96 551 64
2019-11-10 20:24:46 GMT 48.770828 -8.611943 35,000 96 551 0
2019-11-10 20:24:35 GMT 48.773945 -8.650577 35,000 96 552 0
2019-11-10 20:24:26 GMT 48.777100 -8.690045 34,975 96 551 0
2019-11-10 20:24:15 GMT 48.780087 -8.727264 34,975 96 552 -64
2019-11-10 20:24:05 GMT 48.783207 -8.766367 35,000 96 552 0
2019-11-10 20:23:55 GMT 48.786346 -8.805894 35,000 96 552 0
2019-11-10 20:23:44 GMT 48.789597 -8.846952 34,975 96 552 0
2019-11-10 20:23:35 GMT 48.792343 -8.882658 35,000 96 552 -64
2019-11-10 20:23:25 GMT 48.795357 -8.921404 35,000 96 552 0
2019-11-10 20:23:14 GMT 48.798431 -8.961736 34,975 96 552 -64
2019-11-10 20:23:04 GMT 48.801502 -9.002790 35,000 96 552 0
2019-11-10 20:22:55 GMT 48.804245 -9.038931 35,000 96 552 0
2019-11-10 20:22:44 GMT 48.807091 -9.076875 35,000 96 552 -64
2019-11-10 20:22:33 GMT 48.810242 -9.119075 35,000 96 551 0
2019-11-10 20:22:24 GMT 48.813000 -9.156237 35,000 96 551 -64
2019-11-10 20:22:14 GMT 48.815842 -9.194545 35,000 96 550 0
2019-11-10 20:22:06 GMT 48.818069 -9.224713 35,000 96 549 -64
2019-11-10 20:22:03 GMT 48.818802 -9.234643 35,000 96 549 0
2019-11-10 20:21:54 GMT 48.821522 -9.270871 35,000 96 548 0
2019-11-10 20:21:43 GMT 48.824451 -9.309684 35,000 96 548 0
2019-11-10 20:21:34 GMT 48.827271 -9.347464 34,975 96 548 -64
2019-11-10 20:21:28 GMT 48.828918 -9.369507 35,000 96 548 0
2019-11-10 20:21:24 GMT 48.830109 -9.385564 35,000 96 548 0
2019-11-10 20:21:19 GMT 48.831573 -9.405381 35,000 96 548 0
2019-11-10 20:21:13 GMT 48.833111 -9.425619 35,000 96 549 0
2019-11-10 20:21:08 GMT 48.834507 -9.444339 35,000 96 549 0
2019-11-10 20:21:03 GMT 48.836044 -9.464577 35,000 96 549 0
2019-11-10 20:20:57 GMT 48.837719 -9.486694 35,000 96 549 0
2019-11-10 20:20:53 GMT 48.838852 -9.501624 35,000 96 549 0
2019-11-10 20:20:48 GMT 48.840279 -9.519942 34,975 96 550 0
2019-11-10 20:20:43 GMT 48.841827 -9.540640 35,000 96 550 0
2019-11-10 20:20:37 GMT 48.843613 -9.563599 35,000 96 550 0
2019-11-10 20:20:33 GMT 48.844803 -9.579233 35,000 96 550 0
2019-11-10 20:20:22 GMT 48.847916 -9.619470 34,975 96 551 0
2019-11-10 20:20:12 GMT 48.850895 -9.657850 34,975 96 551 0
2019-11-10 20:20:06 GMT 48.852661 -9.681629 34,975 96 551 0
2019-11-10 20:20:03 GMT 48.853683 -9.695082 35,000 96 551 -64
2019-11-10 20:19:52 GMT 48.856995 -9.740753 35,000 96 551 0
2019-11-10 20:19:48 GMT 48.857758 -9.751845 35,000 95 550 0
2019-11-10 20:19:42 GMT 48.859276 -9.773712 35,000 95 550 0
2019-11-10 20:19:31 GMT 48.861786 -9.814383 35,000 94 550 0
2019-11-10 20:19:27 GMT 48.862625 -9.829367 35,000 94 549 0
2019-11-10 20:19:22 GMT 48.863743 -9.851267 35,000 94 549 0
2019-11-10 20:19:17 GMT 48.864582 -9.867746 35,000 94 549 0
2019-11-10 20:19:12 GMT 48.865650 -9.888852 35,000 94 550 0
2019-11-10 20:19:08 GMT 48.866489 -9.905404 35,000 94 550 0
2019-11-10 20:19:01 GMT 48.867794 -9.929978 34,975 94 550 0
2019-11-10 20:18:57 GMT 48.868561 -9.944951 34,975 94 550 0
2019-11-10 20:18:51 GMT 48.869934 -9.970374 34,975 94 552 0
2019-11-10 20:18:47 GMT 48.870773 -9.984548 34,975 95 552 64
2019-11-10 20:18:41 GMT 48.873009 -10.022350 34,975 93 550 0
2019-11-10 20:18:32 GMT 48.873707 -10.044540 34,975 88 543 0
2019-11-10 20:18:22 GMT 48.872131 -10.086083 35,000 80 530 -256
2019-11-10 20:18:10 GMT 48.867283 -10.124046 34,975 73 516 -384
2019-11-10 20:18:01 GMT 48.860733 -10.154959 34,975 67 505 -384
2019-11-10 20:17:50 GMT 48.850243 -10.189313 34,975 60 490 -448
2019-11-10 20:17:40 GMT 48.838257 -10.217637 35,000 52 474 -384
2019-11-10 20:17:30 GMT 48.824406 -10.243595 35,000 50 471 0
2019-11-10 20:17:21 GMT 48.810207 -10.269542 35,000 50 472 0
2019-11-10 20:16:50 GMT 48.767799 -10.347170 34,975 40 387 0
We lost coverage of the aircraft here for a total of 52 minutes
2019-11-10 19:25:12 GMT 43.462646 -11.671441 36,000 17 385 0
2019-11-10 19:25:07 GMT 43.456329 -11.674151 35,975 17 385 0
2019-11-10 19:24:58 GMT 43.440361 -11.680952 35,975 17 384 -64
2019-11-10 19:24:48 GMT 43.420990 -11.689134 36,000 17 384 -64
2019-11-10 19:24:36 GMT 43.402863 -11.696863 36,000 17 383 64
2019-11-10 19:24:27 GMT 43.386967 -11.703578 36,000 17 383 0
2019-11-10 19:24:17 GMT 43.369034 -11.711106 36,000 17 383 0
2019-11-10 19:24:06 GMT 43.351456 -11.718516 36,000 17 382 0
2019-11-10 19:23:55 GMT 43.317417 -11.732941 36,000 17 382 0
2019-11-10 19:23:46 GMT 43.317417 -11.732941 36,000 17 382 0
2019-11-10 19:23:33 GMT 43.297211 -11.741507 36,000 17 381 0
2019-11-10 19:23:25 GMT 43.283249 -11.747451 36,000 17 381 0
2019-11-10 19:23:15 GMT 43.266254 -11.754652 36,000 17 381 0
2019-11-10 19:23:03 GMT 43.247589 -11.762525 36,000 17 381 0
2019-11-10 19:22:52 GMT 43.228779 -11.770477 36,000 17 380 0
2019-11-10 19:22:46 GMT 43.216164 -11.775840 36,000 17 379 0
2019-11-10 19:22:35 GMT 43.199036 -11.783033 36,000 17 379 0
2019-11-10 19:22:22 GMT 43.177048 -11.792226 36,000 17 379 0
2019-11-10 19:22:13 GMT 43.159927 -11.799380 36,000 17 379 0
2019-11-10 19:22:04 GMT 43.147018 -11.804810 36,000 17 379 0
2019-11-10 19:21:54 GMT 43.128937 -11.812411 36,000 17 379 0
2019-11-10 19:21:36 GMT 43.100418 -11.824355 36,000 17 378 0
2019-11-10 19:21:30 GMT 43.091721 -11.827996 36,000 17 378 0
2019-11-10 19:21:21 GMT 43.074966 -11.835022 36,000 17 378 0
2019-11-10 19:20:49 GMT 43.021900 -11.857256 35,975 17 378 0
2019-11-10 19:20:41 GMT 43.007706 -11.863207 36,000 17 378 0
2019-11-10 19:20:29 GMT 42.988293 -11.871316 36,000 17 378 0
2019-11-10 19:20:18 GMT 42.970230 -11.878902 36,000 17 378 0
2019-11-10 19:19:19 GMT 42.872177 -11.919655 36,000 17 376 0
2019-11-10 19:19:07 GMT 42.851151 -11.928406 36,000 17 376 0
2019-11-10 19:18:47 GMT 42.817677 -11.942400 36,000 17 376 0
2019-11-10 19:18:39 GMT 42.803528 -11.948271 36,000 17 376 0
2019-11-10 19:18:29 GMT 42.788860 -11.954402 36,000 17 376 0
2019-11-10 19:18:20 GMT 42.773220 -11.960918 36,000 17 376 0
2019-11-10 19:17:59 GMT 42.738831 -11.975223 36,000 17 376 0
2019-11-10 19:17:55 GMT 42.732346 -11.977972 36,000 17 376 0
2019-11-10 19:17:47 GMT 42.718872 -11.983525 36,000 16 376 0
2019-11-10 19:17:42 GMT 42.710587 -11.987020 36,000 16 376 0
2019-11-10 19:17:37 GMT 42.702438 -11.990391 36,000 16 376 0
2019-11-10 19:17:26 GMT 42.682957 -11.998348 36,000 16 375 0
2019-11-10 19:17:17 GMT 42.669128 -12.003969 36,000 16 375 0
2019-11-10 19:17:08 GMT 42.653320 -12.010366 36,000 16 375 0
2019-11-10 19:16:57 GMT 42.635651 -12.017545 36,000 16 376 0
2019-11-10 19:16:47 GMT 42.618668 -12.024408 36,000 16 375 0
2019-11-10 19:16:20 GMT 42.572674 -12.042996 36,000 16 376 0
2019-11-10 19:16:14 GMT 42.563507 -12.046696 36,000 16 376 0
2019-11-10 19:16:04 GMT 42.546837 -12.053407 36,000 16 376 0
2019-11-10 19:15:57 GMT 42.533802 -12.058645 36,000 16 376 0
2019-11-10 19:15:39 GMT 42.506104 -12.069792 36,000 16 376 0
2019-11-10 19:15:33 GMT 42.495392 -12.074099 35,975 16 377 0
2019-11-10 19:15:20 GMT 42.471634 -12.083650 35,975 16 377 0
2019-11-10 19:15:14 GMT 42.463135 -12.087069 36,000 16 377 0
2019-11-10 19:15:05 GMT 42.448566 -12.092881 36,000 16 377 0
2019-11-10 19:14:36 GMT 42.400543 -12.112177 36,000 16 377 0
2019-11-10 19:14:25 GMT 42.379761 -12.120542 36,000 16 377 0
2019-11-10 19:14:09 GMT 42.355499 -12.130280 36,000 16 377 0
2019-11-10 19:14:02 GMT 42.341263 -12.135996 36,000 16 377 0
2019-11-10 19:13:57 GMT 42.334396 -12.138769 36,000 16 377 0
2019-11-10 19:13:53 GMT 42.327713 -12.141453 36,000 16 377 0
2019-11-10 19:13:47 GMT 42.317333 -12.145641 36,000 16 377 0
2019-11-10 19:13:42 GMT 42.310307 -12.148452 36,000 16 377 0
2019-11-10 19:13:33 GMT 42.294067 -12.154936 35,975 16 377 0
2019-11-10 19:13:22 GMT 42.274273 -12.162823 36,000 16 377 0
2019-11-10 19:13:08 GMT 42.252346 -12.171638 36,000 16 377 0
2019-11-10 19:13:03 GMT 42.243641 -12.175087 36,000 16 377 0
2019-11-10 19:12:49 GMT 42.220047 -12.184462 36,000 16 377 0
2019-11-10 19:12:42 GMT 42.209194 -12.188820 36,000 16 377 0
2019-11-10 19:12:39 GMT 42.204353 -12.190736 36,000 16 377 0
2019-11-10 19:12:27 GMT 42.184940 -12.198465 36,000 16 377 0
2019-11-10 19:12:18 GMT 42.169064 -12.204789 36,000 16 377 0
2019-11-10 19:11:39 GMT 42.104462 -12.230530 36,000 16 377 0
2019-11-10 19:11:30 GMT 42.086243 -12.237771 36,000 16 377 0
2019-11-10 19:11:19 GMT 42.069675 -12.244327 36,000 16 377 0
2019-11-10 19:11:02 GMT 42.042629 -12.255121 36,000 16 376 0
2019-11-10 19:10:52 GMT 42.025772 -12.261803 36,000 16 376 0
2019-11-10 19:10:48 GMT 42.017578 -12.265049 36,000 16 376 0
2019-11-10 19:10:41 GMT 42.006737 -12.269301 36,000 16 376 0
2019-11-10 19:10:36 GMT 41.999405 -12.272228 36,000 16 376 0
2019-11-10 19:10:28 GMT 41.984764 -12.278052 36,000 16 376 0
2019-11-10 19:10:16 GMT 41.965912 -12.285525 36,000 16 375 0
2019-11-10 19:10:07 GMT 41.950085 -12.291785 36,000 16 375 0
2019-11-10 19:10:00 GMT 41.937794 -12.296639 36,000 16 375 0
2019-11-10 19:09:57 GMT 41.933304 -12.298383 36,000 16 375 0
2019-11-10 19:09:51 GMT 41.921814 -12.302940 36,000 16 375 0
2019-11-10 19:09:47 GMT 41.916286 -12.305071 36,000 16 375 0
2019-11-10 19:09:39 GMT 41.903137 -12.310243 36,000 16 375 0
2019-11-10 19:09:36 GMT 41.898834 -12.311928 36,000 16 375 0
2019-11-10 19:09:29 GMT 41.887665 -12.316360 36,000 16 375 0
2019-11-10 19:09:26 GMT 41.882351 -12.318420 36,000 16 375 0
2019-11-10 19:09:16 GMT 41.864895 -12.325319 35,975 16 374 0
2019-11-10 19:09:05 GMT 41.847153 -12.332278 36,000 16 374 0
2019-11-10 19:08:59 GMT 41.837009 -12.336241 35,975 16 374 0
2019-11-10 19:08:56 GMT 41.830536 -12.338770 35,975 16 374 0
2019-11-10 19:08:44 GMT 41.812943 -12.345695 36,000 16 374 0
2019-11-10 19:08:35 GMT 41.797207 -12.351954 36,000 16 374 0
2019-11-10 19:08:29 GMT 41.786777 -12.356042 36,000 16 374 0
2019-11-10 19:08:24 GMT 41.779797 -12.358789 35,975 16 374 0
2019-11-10 19:08:15 GMT 41.762569 -12.365559 35,975 16 374 -64
2019-11-10 19:08:08 GMT 41.752934 -12.369392 36,000 16 374 0
2019-11-10 19:08:03 GMT 41.744293 -12.372790 35,975 16 374 0
2019-11-10 19:07:56 GMT 41.731522 -12.377759 36,000 16 374 0
2019-11-10 19:07:53 GMT 41.727722 -12.379282 36,000 16 374 0
2019-11-10 19:07:44 GMT 41.711967 -12.385424 36,000 16 374 0
2019-11-10 19:07:33 GMT 41.693436 -12.392703 36,000 16 373 0
2019-11-10 19:07:25 GMT 41.679520 -12.398196 36,000 16 373 0
2019-11-10 19:07:17 GMT 41.668396 -12.402503 36,000 16 373 0
2019-11-10 19:07:12 GMT 41.660156 -12.405800 36,000 16 373 0
2019-11-10 19:07:06 GMT 41.650681 -12.409495 36,000 16 373 0
2019-11-10 19:07:03 GMT 41.643082 -12.412491 36,000 16 373 0
2019-11-10 19:06:56 GMT 41.633835 -12.416111 36,000 16 373 0
2019-11-10 19:06:51 GMT 41.625687 -12.419295 36,000 16 373 -64
2019-11-10 19:06:46 GMT 41.616577 -12.422853 36,000 16 373 0
2019-11-10 19:06:41 GMT 41.608994 -12.425856 35,975 16 373 0
2019-11-10 19:06:34 GMT 41.596710 -12.430656 36,000 16 373 0
2019-11-10 19:06:31 GMT 41.591770 -12.432563 35,975 16 373 64
2019-11-10 19:06:25 GMT 41.581669 -12.436523 35,975 16 373 -64
2019-11-10 19:06:22 GMT 41.575378 -12.438958 35,975 16 373 0
2019-11-10 19:06:15 GMT 41.564896 -12.443078 36,000 16 373 0
2019-11-10 19:06:11 GMT 41.557938 -12.445762 36,000 16 374 0
2019-11-10 19:06:07 GMT 41.550980 -12.448446 36,000 16 373 0
2019-11-10 19:06:00 GMT 41.540405 -12.452566 36,000 16 374 0
2019-11-10 19:05:54 GMT 41.530746 -12.456311 36,000 16 374 0
2019-11-10 19:05:50 GMT 41.523331 -12.459245 36,000 16 374 0
2019-11-10 19:05:44 GMT 41.514862 -12.462554 36,000 16 374 0
2019-11-10 19:05:40 GMT 41.505554 -12.466161 36,000 16 374 0
2019-11-10 19:05:33 GMT 41.496140 -12.469857 36,000 16 374 0
2019-11-10 19:05:30 GMT 41.490288 -12.472101 35,975 16 374 0
2019-11-10 19:05:25 GMT 41.483353 -12.474848 36,000 16 374 0
2019-11-10 19:05:19 GMT 41.471897 -12.479255 36,000 16 374 0
2019-11-10 19:05:16 GMT 41.466934 -12.481218 36,000 16 374 0
2019-11-10 19:05:09 GMT 41.455994 -12.485463 36,000 16 374 0
2019-11-10 19:05:05 GMT 41.448486 -12.488396 36,000 16 374 0
2019-11-10 19:04:59 GMT 41.439377 -12.491954 36,000 16 374 0
2019-11-10 19:04:55 GMT 41.432888 -12.494457 35,975 16 374 0
2019-11-10 19:04:48 GMT 41.421112 -12.499056 36,000 16 374 0
2019-11-10 19:04:44 GMT 41.404163 -12.505635 36,000 16 374 0
2019-11-10 19:04:38 GMT 41.404163 -12.505635 36,000 16 375 0
2019-11-10 19:04:34 GMT 41.397835 -12.508062 36,000 16 375 0
2019-11-10 19:04:29 GMT 41.388382 -12.511742 36,000 16 375 0
2019-11-10 19:04:24 GMT 41.382065 -12.514221 36,000 16 375 0
2019-11-10 19:04:18 GMT 41.370926 -12.518484 36,000 16 375 0
2019-11-10 19:04:14 GMT 41.365082 -12.520752 36,000 16 375 0
2019-11-10 19:04:08 GMT 41.353912 -12.525085 36,000 16 375 0
2019-11-10 19:04:05 GMT 41.348099 -12.527344 36,000 16 375 0
2019-11-10 19:03:56 GMT 41.334778 -12.532532 35,975 16 375 0
2019-11-10 19:03:52 GMT 41.328781 -12.534851 35,975 16 376 0
2019-11-10 19:03:48 GMT 41.320091 -12.538209 35,975 16 376 0
2019-11-10 19:03:43 GMT 41.312271 -12.541268 35,975 16 376 0
2019-11-10 19:03:34 GMT 41.297745 -12.546936 36,000 16 376 0
2019-11-10 19:03:27 GMT 41.280384 -12.553628 36,000 16 376 0
2019-11-10 19:03:16 GMT 41.267860 -12.558497 36,000 16 376 0
2019-11-10 19:03:13 GMT 41.263504 -12.560181 36,000 16 376 0
2019-11-10 19:03:06 GMT 41.244965 -12.567383 36,000 16 376 0
2019-11-10 19:02:56 GMT 41.228577 -12.573669 36,000 16 376 0
2019-11-10 19:02:45 GMT 41.204865 -12.582825 36,000 16 377 0
2019-11-10 19:02:35 GMT 41.198685 -12.585213 36,000 16 377 0
2019-11-10 19:02:32 GMT 41.194473 -12.586853 36,000 16 376 0
2019-11-10 19:02:24 GMT 41.181599 -12.591830 36,000 16 376 0
2019-11-10 19:02:15 GMT 41.164234 -12.598509 36,000 16 376 0
2019-11-10 19:02:03 GMT 41.145660 -12.605625 35,975 16 376 -64
2019-11-10 19:01:56 GMT 41.132446 -12.610718 36,000 16 376 0
2019-11-10 19:01:52 GMT 41.127411 -12.612617 36,000 16 376 0
2019-11-10 19:01:44 GMT 41.112030 -12.618530 36,000 16 376 0
2019-11-10 19:01:34 GMT 41.097473 -12.624146 36,000 16 377 0
2019-11-10 19:01:30 GMT 41.078110 -12.631653 35,975 16 377 0
2019-11-10 19:01:23 GMT 41.078110 -12.631653 36,000 16 376 0
2019-11-10 19:01:14 GMT 41.059029 -12.638959 35,975 16 376 0
2019-11-10 19:01:01 GMT 41.041306 -12.645752 36,000 16 375 0
2019-11-10 19:00:51 GMT 41.025276 -12.651943 36,000 16 375 0
2019-11-10 19:00:46 GMT 41.016449 -12.655334 36,000 16 375 0
2019-11-10 19:00:41 GMT 41.009262 -12.658123 36,000 16 375 0
2019-11-10 19:00:36 GMT 41.000244 -12.661560 36,000 16 375 0
2019-11-10 19:00:32 GMT 40.992550 -12.664552 36,000 16 375 0
2019-11-10 19:00:18 GMT 40.971043 -12.672792 36,000 16 375 0
2019-11-10 19:00:10 GMT 40.942226 -12.683841 36,000 16 373 0
2019-11-10 19:00:02 GMT 40.942226 -12.683841 36,000 16 374 0
2019-11-10 18:59:55 GMT 40.931381 -12.687961 36,000 16 374 0
2019-11-10 18:59:51 GMT 40.923889 -12.690796 36,000 16 374 0
2019-11-10 18:59:44 GMT 40.914276 -12.694519 36,000 16 374 0
2019-11-10 18:59:40 GMT 40.897614 -12.700806 36,000 16 373 0
2019-11-10 18:59:30 GMT 40.888504 -12.704346 35,975 16 373 0
2019-11-10 18:59:24 GMT 40.881149 -12.707124 35,975 16 373 0
2019-11-10 18:59:21 GMT 40.874039 -12.709839 36,000 16 373 -64
2019-11-10 18:59:09 GMT 40.854767 -12.717163 36,000 16 373 0
2019-11-10 18:58:59 GMT 40.837830 -12.723633 36,000 16 373 0
2019-11-10 18:58:48 GMT 40.820724 -12.730158 36,000 16 373 0
2019-11-10 18:58:42 GMT 40.811462 -12.733716 36,000 16 372 64
2019-11-10 18:58:33 GMT 40.796219 -12.739563 36,000 16 372 0
2019-11-10 18:58:26 GMT 40.785095 -12.743774 36,000 16 372 0
2019-11-10 18:58:23 GMT 40.778824 -12.746155 35,975 16 372 0
2019-11-10 18:58:17 GMT 40.767883 -12.750305 36,000 16 372 0
2019-11-10 18:58:13 GMT 40.762585 -12.752318 36,000 16 372 0
2019-11-10 18:58:09 GMT 40.743942 -12.759399 36,000 16 371 0
2019-11-10 18:58:01 GMT 40.743942 -12.759399 36,000 16 371 0
2019-11-10 18:57:57 GMT 40.736984 -12.762024 36,000 16 371 0
2019-11-10 18:57:52 GMT 40.728928 -12.765137 36,000 16 370 0
2019-11-10 18:57:48 GMT 40.721012 -12.768111 36,000 16 370 0
2019-11-10 18:57:36 GMT 40.702560 -12.775146 36,000 16 370 0
2019-11-10 18:57:28 GMT 40.681534 -12.783155 36,000 16 370 0
2019-11-10 18:57:16 GMT 40.668182 -12.788208 36,000 16 370 -64
2019-11-10 18:57:12 GMT 40.662140 -12.790466 36,000 16 369 0
2019-11-10 18:57:06 GMT 40.653091 -12.793954 36,000 16 369 0
2019-11-10 18:57:02 GMT 40.645203 -12.796936 36,000 16 369 0
2019-11-10 18:56:56 GMT 40.636333 -12.800258 36,000 16 369 0
2019-11-10 18:56:47 GMT 40.619576 -12.806625 36,000 16 369 0
2019-11-10 18:56:35 GMT 40.602024 -12.813305 36,000 16 369 0
2019-11-10 18:56:25 GMT 40.583633 -12.820251 36,000 16 369 0
2019-11-10 18:56:15 GMT 40.569031 -12.825806 35,975 16 369 0
2019-11-10 18:56:06 GMT 40.552120 -12.832156 35,975 16 369 0
2019-11-10 18:56:03 GMT 40.549026 -12.833374 35,975 16 369 0
2019-11-10 18:55:59 GMT 40.542950 -12.835652 35,975 16 369 0
2019-11-10 18:55:55 GMT 40.535545 -12.838461 35,975 16 369 0
2019-11-10 18:55:50 GMT 40.528152 -12.841248 35,975 16 369 0
2019-11-10 18:55:44 GMT 40.517487 -12.845265 35,975 16 369 0
2019-11-10 18:55:40 GMT 40.511719 -12.847412 35,975 16 370 0
2019-11-10 18:55:32 GMT 40.498260 -12.852539 36,000 16 370 0
2019-11-10 18:55:29 GMT 40.493820 -12.854187 36,000 16 370 -64
2019-11-10 18:55:23 GMT 40.482468 -12.858521 36,000 16 370 0
2019-11-10 18:55:20 GMT 40.477661 -12.860291 36,000 16 370 0
2019-11-10 18:55:13 GMT 40.465668 -12.864868 36,000 16 371 0
2019-11-10 18:55:02 GMT 40.448681 -12.871295 36,000 16 371 0
2019-11-10 18:54:53 GMT 40.417118 -12.883155 36,000 16 371 64
2019-11-10 18:54:44 GMT 40.417118 -12.883155 35,975 16 372 0
2019-11-10 18:54:33 GMT 40.400406 -12.889460 35,975 16 372 -64
2019-11-10 18:54:23 GMT 40.383507 -12.895764 36,000 16 373 0
2019-11-10 18:54:12 GMT 40.366104 -12.902283 35,975 16 373 0
2019-11-10 18:54:03 GMT 40.349121 -12.908691 36,000 15 374 0
2019-11-10 18:53:50 GMT 40.327503 -12.916738 36,000 15 374 0
2019-11-10 18:53:40 GMT 40.312702 -12.922294 36,000 15 374 0
2019-11-10 18:53:34 GMT 40.302521 -12.926147 36,000 15 375 0
2019-11-10 18:53:30 GMT 40.295525 -12.928723 36,000 16 375 0
2019-11-10 18:53:19 GMT 40.278206 -12.935278 36,000 16 375 0
2019-11-10 18:53:10 GMT 40.261642 -12.941467 36,000 16 376 0
2019-11-10 18:53:05 GMT 40.253952 -12.944336 36,000 16 376 0
2019-11-10 18:52:58 GMT 40.243423 -12.948242 36,000 16 376 0
2019-11-10 18:52:50 GMT 40.227814 -12.954102 36,000 16 376 0
2019-11-10 18:52:44 GMT 40.219131 -12.957375 36,000 15 377 0
2019-11-10 18:52:40 GMT 40.212067 -12.960022 35,975 15 377 0
2019-11-10 18:52:37 GMT 40.206848 -12.961975 35,975 15 377 0
2019-11-10 18:52:29 GMT 40.193939 -12.966797 35,975 15 378 0
2019-11-10 18:52:24 GMT 40.185848 -12.969797 36,000 15 378 0
2019-11-10 18:52:18 GMT 40.174759 -12.973938 36,000 16 378 0
2019-11-10 18:52:13 GMT 40.166656 -12.976990 36,000 16 379 0
2019-11-10 18:52:10 GMT 40.160103 -12.979473 36,000 16 378 0
2019-11-10 18:52:06 GMT 40.140015 -12.986938 36,000 16 379 -64
2019-11-10 18:51:58 GMT 40.140015 -12.986938 36,000 16 379 0
2019-11-10 18:51:53 GMT 40.132965 -12.989585 36,000 16 379 0
2019-11-10 18:51:48 GMT 40.125515 -12.992394 36,000 16 379 0
2019-11-10 18:51:44 GMT 40.118591 -12.994995 36,000 16 379 0
2019-11-10 18:51:36 GMT 40.104614 -13.000197 36,000 15 379 0
2019-11-10 18:51:29 GMT 40.091629 -13.005005 36,000 15 379 0
2019-11-10 18:51:25 GMT 40.085541 -13.007263 36,000 15 379 0
2019-11-10 18:51:16 GMT 40.070026 -13.013056 36,000 16 379 0
2019-11-10 18:51:13 GMT 40.066452 -13.014404 36,000 16 379 0
2019-11-10 18:51:06 GMT 40.049076 -13.020859 36,000 15 379 0
2019-11-10 18:50:57 GMT 40.031853 -13.027288 36,000 16 379 0
2019-11-10 18:50:53 GMT 40.031853 -13.027288 35,975 16 379 0
2019-11-10 18:50:48 GMT 40.022404 -13.030784 35,975 16 379 0
2019-11-10 18:50:42 GMT 40.013306 -13.034180 36,000 15 379 0
2019-11-10 18:50:37 GMT 40.004517 -13.037476 35,975 16 379 0
2019-11-10 18:50:33 GMT 39.997742 -13.039978 35,975 16 379 -64
2019-11-10 18:50:27 GMT 39.978333 -13.047180 36,000 15 379 0
2019-11-10 18:50:16 GMT 39.970047 -13.050293 36,000 15 379 0
2019-11-10 18:50:07 GMT 39.952469 -13.056824 36,000 16 379 0
2019-11-10 18:49:56 GMT 39.935440 -13.063171 36,000 16 379 0
2019-11-10 18:49:52 GMT 39.928345 -13.065857 36,000 16 379 0
2019-11-10 18:49:45 GMT 39.917862 -13.069730 36,000 16 379 0
2019-11-10 18:49:40 GMT 39.908386 -13.073253 36,000 16 379 0
2019-11-10 18:49:35 GMT 39.900806 -13.076050 36,000 16 380 0
2019-11-10 18:49:31 GMT 39.893173 -13.078918 36,000 15 380 0
2019-11-10 18:49:26 GMT 39.882698 -13.082764 36,000 15 380 0
2019-11-10 18:49:21 GMT 39.875900 -13.085266 36,000 15 380 0
2019-11-10 18:49:15 GMT 39.866455 -13.088777 36,000 15 380 -64
2019-11-10 18:49:04 GMT 39.848328 -13.095405 36,000 15 380 64
2019-11-10 18:48:53 GMT 39.826813 -13.103346 35,975 16 380 0
2019-11-10 18:48:44 GMT 39.813892 -13.108093 35,975 15 381 0
2019-11-10 18:48:41 GMT 39.809006 -13.109924 35,975 16 380 -64
2019-11-10 18:48:34 GMT 39.796783 -13.114452 36,000 16 380 0
2019-11-10 18:48:30 GMT 39.788151 -13.117615 35,975 15 381 0
2019-11-10 18:48:22 GMT 39.771717 -13.123718 35,975 15 381 0
2019-11-10 18:48:19 GMT 39.771717 -13.123718 36,000 15 381 0
2019-11-10 18:48:12 GMT 39.757462 -13.129020 36,000 15 381 0
2019-11-10 18:48:08 GMT 39.753387 -13.130513 36,000 15 381 0
2019-11-10 18:48:02 GMT 39.742538 -13.134514 35,975 15 381 0
2019-11-10 18:47:59 GMT 39.737091 -13.136544 36,000 15 381 0
2019-11-10 18:47:53 GMT 39.727074 -13.140259 36,000 15 382 0
2019-11-10 18:47:47 GMT 39.717392 -13.143799 36,000 15 382 0
2019-11-10 18:47:43 GMT 39.709709 -13.146667 36,000 15 382 0
2019-11-10 18:47:39 GMT 39.702915 -13.149170 36,000 15 383 0
2019-11-10 18:47:33 GMT 39.692020 -13.153137 36,000 15 383 0
2019-11-10 18:47:29 GMT 39.685684 -13.155471 35,975 15 383 0
2019-11-10 18:47:22 GMT 39.674423 -13.159591 36,000 15 383 0
2019-11-10 18:47:18 GMT 39.667969 -13.161920 36,000 15 383 0
2019-11-10 18:47:11 GMT 39.656525 -13.166159 36,000 15 384 0
2019-11-10 18:47:08 GMT 39.650169 -13.168457 36,000 15 384 0
2019-11-10 18:47:01 GMT 39.638905 -13.172546 35,975 15 384 0
2019-11-10 18:46:57 GMT 39.632385 -13.174988 35,975 15 384 0
2019-11-10 18:46:52 GMT 39.615463 -13.181205 36,000 15 384 0
2019-11-10 18:46:47 GMT 39.615463 -13.181205 36,000 15 384 0
2019-11-10 18:46:41 GMT 39.603973 -13.185445 35,975 15 385 0
2019-11-10 18:46:38 GMT 39.598663 -13.187415 35,975 15 385 0
2019-11-10 18:46:28 GMT 39.579784 -13.194336 36,000 15 386 -64
2019-11-10 18:46:21 GMT 39.568470 -13.198486 36,000 15 386 0
2019-11-10 18:46:17 GMT 39.562775 -13.200551 36,000 15 386 -64
2019-11-10 18:46:06 GMT 39.544556 -13.207238 36,000 15 386 0
2019-11-10 18:45:59 GMT 39.531784 -13.211895 36,000 15 387 0
2019-11-10 18:45:56 GMT 39.527664 -13.213448 36,000 15 387 0
2019-11-10 18:45:46 GMT 39.508896 -13.220374 36,000 16 388 -64
2019-11-10 18:45:36 GMT 39.492325 -13.226464 36,000 16 388 0
2019-11-10 18:45:25 GMT 39.474380 -13.233092 36,000 15 389 64
2019-11-10 18:45:19 GMT 39.462936 -13.237244 35,975 15 388 -64
2019-11-10 18:45:15 GMT 39.457077 -13.239421 36,000 15 388 -64
2019-11-10 18:45:12 GMT 39.451355 -13.241511 36,000 15 388 -64
2019-11-10 18:45:08 GMT 39.443939 -13.244257 36,000 15 388 0
2019-11-10 18:45:05 GMT 39.439087 -13.245989 36,000 15 388 0
2019-11-10 18:44:58 GMT 39.424858 -13.251160 36,000 15 388 -64
2019-11-10 18:44:55 GMT 39.421783 -13.252318 36,000 15 389 0
2019-11-10 18:44:51 GMT 39.415512 -13.254587 36,000 15 389 0
2019-11-10 18:44:45 GMT 39.403931 -13.258767 36,000 15 389 0
2019-11-10 18:44:41 GMT 39.396973 -13.261334 36,000 15 389 0
2019-11-10 18:44:35 GMT 39.385529 -13.265514 36,000 15 390 0
2019-11-10 18:44:31 GMT 39.379471 -13.267700 36,000 15 390 0
2019-11-10 18:44:25 GMT 39.370743 -13.270887 36,000 15 390 0
2019-11-10 18:44:21 GMT 39.362942 -13.273682 36,000 15 390 0
2019-11-10 18:44:16 GMT 39.345383 -13.280082 36,000 15 389 0
2019-11-10 18:44:08 GMT 39.340027 -13.282053 36,000 15 389 0
2019-11-10 18:44:03 GMT 39.332199 -13.284859 36,000 15 389 0
2019-11-10 18:43:55 GMT 39.318161 -13.289978 36,000 15 388 0
2019-11-10 18:43:51 GMT 39.310574 -13.292786 36,000 15 388 0
2019-11-10 18:43:46 GMT 39.300514 -13.296448 36,000 15 388 0
2019-11-10 18:43:41 GMT 39.293629 -13.298950 36,000 15 387 0
2019-11-10 18:43:34 GMT 39.282394 -13.303010 36,000 15 387 0
2019-11-10 18:43:30 GMT 39.274841 -13.305757 36,000 15 386 0
2019-11-10 18:43:24 GMT 39.257812 -13.311967 36,000 15 386 0
2019-11-10 18:43:15 GMT 39.247467 -13.315728 36,000 15 386 0
2019-11-10 18:43:10 GMT 39.240742 -13.318176 36,000 15 386 0
2019-11-10 18:43:04 GMT 39.223389 -13.324505 36,000 15 386 0
2019-11-10 18:42:53 GMT 39.210800 -13.329043 35,975 15 387 0
2019-11-10 18:42:50 GMT 39.205811 -13.330894 35,975 15 387 0
2019-11-10 18:42:44 GMT 39.184414 -13.338684 36,000 15 387 0
2019-11-10 18:42:38 GMT 39.184414 -13.338684 35,975 15 387 0
2019-11-10 18:42:34 GMT 39.177704 -13.341104 36,000 15 387 0
2019-11-10 18:42:31 GMT 39.172173 -13.343140 36,000 15 387 0
2019-11-10 18:42:20 GMT 39.153877 -13.349792 36,000 15 388 0
2019-11-10 18:42:13 GMT 39.140350 -13.354658 36,000 15 388 0
2019-11-10 18:42:09 GMT 39.135178 -13.356509 36,000 15 388 0
2019-11-10 18:42:03 GMT 39.124786 -13.360271 35,975 15 388 0
2019-11-10 18:41:59 GMT 39.117706 -13.362793 35,975 15 388 0
2019-11-10 18:41:52 GMT 39.105057 -13.367376 36,000 15 388 0
2019-11-10 18:41:49 GMT 39.100201 -13.369141 36,000 15 389 0
2019-11-10 18:41:39 GMT 39.082901 -13.375377 36,000 15 389 0
2019-11-10 18:41:29 GMT 39.063446 -13.382363 36,000 15 389 0
2019-11-10 18:41:19 GMT 39.047836 -13.388035 36,000 15 390 0
2019-11-10 18:41:12 GMT 39.035820 -13.392334 35,975 15 390 0
2019-11-10 18:41:09 GMT 39.030605 -13.394226 35,975 15 390 0
2019-11-10 18:40:58 GMT 39.011288 -13.401245 35,975 15 391 0
2019-11-10 18:40:47 GMT 38.992435 -13.408020 35,975 15 392 -64
2019-11-10 18:40:42 GMT 38.982971 -13.411441 35,975 15 392 0
2019-11-10 18:40:37 GMT 38.975628 -13.414124 36,000 15 392 0
2019-11-10 18:40:31 GMT 38.963757 -13.418457 36,000 15 392 0
2019-11-10 18:40:27 GMT 38.956421 -13.421113 36,000 15 393 0
2019-11-10 18:40:21 GMT 38.946945 -13.424517 36,000 15 393 0
2019-11-10 18:40:17 GMT 38.939758 -13.427144 36,000 15 393 0
2019-11-10 18:40:06 GMT 38.920139 -13.434204 36,000 15 393 0
2019-11-10 18:39:58 GMT 38.906479 -13.439145 35,975 15 394 0
2019-11-10 18:39:48 GMT 38.871120 -13.451843 36,000 15 395 0
2019-11-10 18:39:38 GMT 38.871120 -13.451843 36,000 15 395 0
2019-11-10 18:39:31 GMT 38.859108 -13.456116 36,000 15 395 0
2019-11-10 18:39:25 GMT 38.847843 -13.460205 36,000 15 395 0
2019-11-10 18:39:19 GMT 38.837814 -13.463745 36,000 15 395 0
2019-11-10 18:39:15 GMT 38.828293 -13.467148 36,000 15 395 0
2019-11-10 18:39:11 GMT 38.817165 -13.471130 36,000 15 396 0
2019-11-10 18:38:57 GMT 38.799683 -13.477418 35,975 15 396 0
2019-11-10 18:38:47 GMT 38.781181 -13.484009 36,000 15 396 0
2019-11-10 18:38:37 GMT 38.763336 -13.490435 36,000 15 395 0
2019-11-10 18:38:31 GMT 38.753632 -13.493898 36,000 15 395 0
2019-11-10 18:38:27 GMT 38.745892 -13.496704 36,000 15 395 0
2019-11-10 18:38:24 GMT 38.740585 -13.498615 36,000 15 395 0
2019-11-10 18:38:16 GMT 38.727356 -13.503332 36,000 15 395 0
2019-11-10 18:38:13 GMT 38.722229 -13.505183 36,000 15 396 0
2019-11-10 18:38:05 GMT 38.708130 -13.510198 36,000 15 396 -64
2019-11-10 18:37:56 GMT 38.691891 -13.516052 36,000 15 396 0
2019-11-10 18:37:52 GMT 38.683933 -13.518860 36,000 15 395 0
2019-11-10 18:37:46 GMT 38.673878 -13.522461 36,000 15 395 0
2019-11-10 18:37:42 GMT 38.667343 -13.524827 36,000 15 395 0
2019-11-10 18:37:37 GMT 38.656792 -13.528564 36,000 15 395 0
2019-11-10 18:37:25 GMT 38.636307 -13.535932 36,000 15 395 0
2019-11-10 18:37:19 GMT 38.626438 -13.539429 36,000 15 395 0
2019-11-10 18:37:15 GMT 38.619232 -13.542023 36,000 15 395 0
2019-11-10 18:37:11 GMT 38.612335 -13.544495 36,000 15 395 0
2019-11-10 18:37:05 GMT 38.601955 -13.548157 36,000 15 395 0
2019-11-10 18:36:55 GMT 38.583984 -13.554565 36,000 15 394 0
2019-11-10 18:36:44 GMT 38.564117 -13.561607 36,000 15 393 0
2019-11-10 18:36:36 GMT 38.550476 -13.566503 36,000 15 392 0
2019-11-10 18:36:31 GMT 38.541901 -13.569519 36,000 15 392 0
2019-11-10 18:36:20 GMT 38.522186 -13.576534 36,000 15 391 0
2019-11-10 18:36:15 GMT 38.513271 -13.579651 36,000 15 390 0
2019-11-10 18:36:10 GMT 38.503914 -13.583008 36,000 15 389 0
2019-11-10 18:36:05 GMT 38.496460 -13.585610 36,000 15 389 0
2019-11-10 18:35:59 GMT 38.486923 -13.588989 36,000 15 388 0
2019-11-10 18:35:55 GMT 38.478264 -13.592041 36,000 15 388 -64
2019-11-10 18:35:50 GMT 38.469978 -13.595032 36,000 15 388 0
2019-11-10 18:35:43 GMT 38.458878 -13.598984 36,000 15 388 0
2019-11-10 18:35:34 GMT 38.442627 -13.604776 36,000 15 388 0
2019-11-10 18:35:24 GMT 38.425659 -13.610779 36,000 15 388 0
2019-11-10 18:35:14 GMT 38.408016 -13.617076 36,000 15 388 0
2019-11-10 18:35:05 GMT 38.391220 -13.622988 35,975 15 389 0
2019-11-10 18:34:59 GMT 38.380459 -13.626808 36,000 15 389 0
2019-11-10 18:34:54 GMT 38.373688 -13.629183 35,975 15 389 0
2019-11-10 18:34:48 GMT 38.362427 -13.633215 35,975 15 390 0
2019-11-10 18:34:44 GMT 38.354919 -13.635845 35,975 15 390 0
2019-11-10 18:34:37 GMT 38.344658 -13.639467 35,975 15 390 0
2019-11-10 18:34:34 GMT 38.338257 -13.641747 35,975 15 390 0
2019-11-10 18:34:23 GMT 38.319946 -13.648234 35,975 15 391 -64
2019-11-10 18:34:12 GMT 38.301132 -13.654871 36,000 15 391 0
2019-11-10 18:34:03 GMT 38.283829 -13.661032 35,975 15 392 0
2019-11-10 18:33:56 GMT 38.271973 -13.665239 36,000 15 392 0
2019-11-10 18:33:53 GMT 38.267578 -13.666758 35,975 15 392 0
2019-11-10 18:33:44 GMT 38.250252 -13.672963 36,000 15 393 0
2019-11-10 18:33:33 GMT 38.231689 -13.679381 35,975 15 393 0
2019-11-10 18:33:23 GMT 38.214157 -13.685575 35,975 15 393 0
2019-11-10 18:33:13 GMT 38.196949 -13.691592 35,975 15 394 0
2019-11-10 18:33:02 GMT 38.177956 -13.698279 35,975 15 395 0
2019-11-10 18:32:52 GMT 38.159241 -13.704847 35,975 15 396 0
2019-11-10 18:32:42 GMT 38.143135 -13.710520 35,975 15 398 0
2019-11-10 18:32:32 GMT 38.125351 -13.716789 35,975 15 399 0
2019-11-10 18:32:22 GMT 38.107521 -13.723058 36,000 15 400 0
2019-11-10 18:32:12 GMT 38.089142 -13.729521 36,000 15 400 0
2019-11-10 18:32:01 GMT 38.070187 -13.736194 36,000 15 400 0
2019-11-10 18:31:50 GMT 38.050358 -13.743180 36,000 15 400 0
2019-11-10 18:31:41 GMT 38.032478 -13.749449 36,000 15 400 0
2019-11-10 18:31:31 GMT 38.015862 -13.755301 36,000 15 401 0
2019-11-10 18:31:21 GMT 37.998310 -13.761391 36,000 15 401 0
2019-11-10 18:31:12 GMT 37.979179 -13.768138 36,000 15 401 0
2019-11-10 18:31:01 GMT 37.962185 -13.774049 36,000 15 401 0
2019-11-10 18:30:50 GMT 37.942726 -13.780916 36,000 15 401 0
2019-11-10 18:30:41 GMT 37.926434 -13.786648 36,000 15 401 0
2019-11-10 18:30:29 GMT 37.904800 -13.794270 36,000 15 401 0
2019-11-10 18:30:20 GMT 37.889751 -13.799545 36,000 15 401 0
2019-11-10 18:30:10 GMT 37.871132 -13.806053 36,000 15 401 0
2019-11-10 18:30:00 GMT 37.852707 -13.812503 36,000 15 401 -64
2019-11-10 18:29:50 GMT 37.834763 -13.818697 36,000 15 401 0
2019-11-10 18:29:40 GMT 37.816864 -13.824950 36,000 15 402 0
2019-11-10 18:29:28 GMT 37.795528 -13.832384 36,000 15 402 0
2019-11-10 18:29:19 GMT 37.779190 -13.838056 35,975 15 402 0
2019-11-10 18:29:08 GMT 37.759415 -13.844936 35,975 15 402 0
2019-11-10 18:28:59 GMT 37.743252 -13.850536 36,000 15 402 0
2019-11-10 18:28:37 GMT 37.703728 -13.864268 36,000 15 403 0
2019-11-10 18:28:29 GMT 37.689331 -13.869246 36,000 15 403 0
2019-11-10 18:28:18 GMT 37.669006 -13.876317 36,000 15 403 0
2019-11-10 18:28:08 GMT 37.652618 -13.882044 36,000 15 403 0
2019-11-10 18:28:00 GMT 37.637512 -13.887303 36,000 15 403 0
2019-11-10 18:27:47 GMT 37.613022 -13.895777 36,000 15 403 0
2019-11-10 18:27:38 GMT 37.597366 -13.901211 36,000 15 403 0
2019-11-10 18:27:29 GMT 37.581894 -13.906588 36,000 15 403 0
2019-11-10 18:27:25 GMT 37.574497 -13.909169 36,000 15 403 0
2019-11-10 18:27:18 GMT 37.562069 -13.913528 36,000 15 403 0
2019-11-10 18:27:07 GMT 37.542053 -13.920454 36,000 15 404 0
2019-11-10 18:26:58 GMT 37.525314 -13.926281 36,000 15 404 0
2019-11-10 18:26:45 GMT 37.502243 -13.934287 36,000 15 404 0
2019-11-10 18:26:32 GMT 37.478230 -13.942546 36,000 15 404 0
2019-11-10 18:26:28 GMT 37.471947 -13.944696 36,000 15 404 0
2019-11-10 18:26:01 GMT 37.423717 -13.961294 36,000 15 404 0
2019-11-10 18:25:57 GMT 37.416500 -13.963802 36,000 15 404 0
2019-11-10 18:25:48 GMT 37.398972 -13.969817 36,000 15 405 0
2019-11-10 18:25:38 GMT 37.380569 -13.976187 36,000 15 405 0
2019-11-10 18:25:27 GMT 37.362122 -13.982557 36,000 15 405 0
2019-11-10 18:25:17 GMT 37.343136 -13.989059 36,000 15 405 0
2019-11-10 18:25:07 GMT 37.322838 -13.996045 36,000 15 405 0
2019-11-10 18:24:56 GMT 37.306229 -14.001725 35,975 15 405 0
2019-11-10 18:24:47 GMT 37.289227 -14.007568 36,000 15 405 0
2019-11-10 18:24:36 GMT 37.270187 -14.014077 36,000 15 405 0
2019-11-10 18:24:26 GMT 37.251205 -14.020600 36,000 15 405 0
2019-11-10 18:24:15 GMT 37.231689 -14.027272 36,000 15 405 0
2019-11-10 18:24:07 GMT 37.215042 -14.032989 36,000 15 405 0
2019-11-10 18:23:56 GMT 37.196774 -14.039273 36,000 15 405 0
2019-11-10 18:23:46 GMT 37.178329 -14.045553 36,000 15 405 0
2019-11-10 18:23:20 GMT 37.132484 -14.061306 36,000 15 404 0
We lost coverage of the aircraft here for a total of 39 minutes
2019-11-10 17:44:09 GMT 32.839252 -15.450645 34,000 14 421 0
2019-11-10 17:44:03 GMT 32.826591 -15.454569 33,975 14 421 0
2019-11-10 17:43:55 GMT 32.810577 -15.459467 33,975 14 421 0
2019-11-10 17:43:44 GMT 32.791489 -15.465331 34,000 14 421 -64
2019-11-10 17:43:31 GMT 32.766953 -15.472870 34,000 14 420 0
2019-11-10 17:43:23 GMT 32.752060 -15.477382 34,000 14 420 0
2019-11-10 17:43:05 GMT 32.717796 -15.487920 34,000 14 420 0
2019-11-10 17:43:00 GMT 32.708359 -15.490833 34,000 14 420 0
2019-11-10 17:42:56 GMT 32.698383 -15.493918 33,975 14 420 0
2019-11-10 17:42:51 GMT 32.691605 -15.495996 34,000 14 420 0
2019-11-10 17:42:48 GMT 32.685196 -15.497919 34,000 14 420 0
2019-11-10 17:42:43 GMT 32.674850 -15.501105 34,000 14 420 0
2019-11-10 17:42:38 GMT 32.665970 -15.503796 33,975 14 420 0
2019-11-10 17:42:31 GMT 32.654858 -15.507202 33,975 14 420 0
2019-11-10 17:42:27 GMT 32.646378 -15.509729 33,975 14 420 0
2019-11-10 17:42:21 GMT 32.634659 -15.513300 34,000 14 420 64
2019-11-10 17:42:17 GMT 32.627518 -15.515442 34,000 14 420 64
2019-11-10 17:42:07 GMT 32.607887 -15.521383 33,975 14 420 0
2019-11-10 17:42:01 GMT 32.594898 -15.525363 33,975 14 420 0
2019-11-10 17:41:57 GMT 32.588882 -15.527197 33,975 14 420 0
2019-11-10 17:41:50 GMT 32.577023 -15.530800 34,000 14 420 0
2019-11-10 17:41:46 GMT 32.569481 -15.533098 33,975 14 420 0
2019-11-10 17:41:40 GMT 32.557571 -15.536700 34,000 14 420 0
2019-11-10 17:41:37 GMT 32.550430 -15.538898 34,000 14 420 0
2019-11-10 17:41:28 GMT 32.533676 -15.544061 33,975 14 420 0
2019-11-10 17:41:21 GMT 32.520676 -15.548016 33,975 14 420 0
2019-11-10 17:41:16 GMT 32.511616 -15.550811 33,975 14 420 0
2019-11-10 17:41:10 GMT 32.500488 -15.554224 34,000 14 420 0
2019-11-10 17:41:05 GMT 32.492390 -15.556697 33,975 14 420 0
2019-11-10 17:40:56 GMT 32.472187 -15.562862 34,000 14 421 0
2019-11-10 17:40:49 GMT 32.456314 -15.567683 34,000 14 421 0
2019-11-10 17:40:40 GMT 32.442348 -15.571887 34,000 14 422 0
2019-11-10 17:40:35 GMT 32.434570 -15.574274 34,000 14 422 0
2019-11-10 17:40:29 GMT 32.423588 -15.577604 34,000 14 423 0
2019-11-10 17:40:25 GMT 32.416000 -15.579902 34,000 14 423 0
2019-11-10 17:40:18 GMT 32.403442 -15.583722 34,000 14 424 0
2019-11-10 17:40:14 GMT 32.395657 -15.586124 34,000 14 424 0
2019-11-10 17:40:09 GMT 32.384033 -15.589655 33,975 14 425 0
2019-11-10 17:40:03 GMT 32.373367 -15.592896 33,975 14 425 0
2019-11-10 17:39:58 GMT 32.364944 -15.595422 33,975 14 426 0
2019-11-10 17:39:54 GMT 32.357483 -15.597671 33,975 14 426 0
2019-11-10 17:39:47 GMT 32.344311 -15.601707 34,000 14 426 0
2019-11-10 17:39:44 GMT 32.337418 -15.603781 34,000 14 426 0
2019-11-10 17:39:38 GMT 32.325920 -15.607312 34,000 14 427 0
2019-11-10 17:39:33 GMT 32.317867 -15.609723 34,000 14 427 0
2019-11-10 17:39:28 GMT 32.305252 -15.613590 34,000 14 427 0
2019-11-10 17:39:24 GMT 32.298363 -15.615664 34,000 14 427 0
2019-11-10 17:39:17 GMT 32.286491 -15.619308 34,000 14 427 64
2019-11-10 17:39:14 GMT 32.278610 -15.621680 34,000 14 427 0
2019-11-10 17:39:06 GMT 32.264832 -15.625909 34,000 14 427 0
2019-11-10 17:39:02 GMT 32.258102 -15.627942 33,975 14 427 0
2019-11-10 17:38:56 GMT 32.246613 -15.631403 33,975 14 427 0
2019-11-10 17:38:53 GMT 32.239334 -15.633655 33,975 14 427 0
2019-11-10 17:38:47 GMT 32.226105 -15.637665 33,975 14 427 -64
2019-11-10 17:38:42 GMT 32.219788 -15.639532 34,000 14 427 0
2019-11-10 17:38:36 GMT 32.199436 -15.645652 34,000 14 427 0
2019-11-10 17:38:33 GMT 32.199436 -15.645652 34,000 14 427 0
2019-11-10 17:38:26 GMT 32.187744 -15.649146 34,000 14 427 0
2019-11-10 17:38:22 GMT 32.180260 -15.651370 34,000 14 427 0
2019-11-10 17:38:16 GMT 32.167038 -15.655349 34,000 14 427 0
2019-11-10 17:38:12 GMT 32.161266 -15.657087 34,000 14 427 0
2019-11-10 17:38:05 GMT 32.148788 -15.660787 34,000 14 427 0
2019-11-10 17:38:01 GMT 32.139587 -15.663593 34,000 14 427 64
2019-11-10 17:37:55 GMT 32.128693 -15.666888 34,000 14 427 0
2019-11-10 17:37:52 GMT 32.120670 -15.669307 34,000 14 427 0
2019-11-10 17:37:44 GMT 32.101318 -15.675183 34,000 14 426 64
2019-11-10 17:37:35 GMT 32.089417 -15.678754 34,000 14 426 0
2019-11-10 17:37:31 GMT 32.082359 -15.680909 34,000 14 426 0
2019-11-10 17:37:23 GMT 32.068394 -15.685113 34,000 14 427 0
2019-11-10 17:37:20 GMT 32.062637 -15.686829 34,000 14 427 0
2019-11-10 17:37:14 GMT 32.041580 -15.693185 34,000 14 427 0
2019-11-10 17:37:10 GMT 32.041580 -15.693185 34,000 14 427 0
2019-11-10 17:37:03 GMT 32.030453 -15.696492 34,000 14 426 0
2019-11-10 17:37:00 GMT 32.022583 -15.698859 34,000 14 426 0
2019-11-10 17:36:54 GMT 32.009598 -15.702770 34,000 14 426 0
2019-11-10 17:36:50 GMT 32.004013 -15.704452 34,000 14 426 64
2019-11-10 17:36:43 GMT 31.990814 -15.708362 34,000 14 426 64
2019-11-10 17:36:39 GMT 31.982208 -15.710944 34,000 14 426 0
2019-11-10 17:36:32 GMT 31.970167 -15.714597 33,975 14 426 0
2019-11-10 17:36:29 GMT 31.964256 -15.716391 33,975 14 426 0
2019-11-10 17:36:20 GMT 31.944565 -15.722332 33,975 14 426 0
2019-11-10 17:36:09 GMT 31.925058 -15.728218 34,000 14 425 -64
2019-11-10 17:36:02 GMT 31.912863 -15.731861 34,000 14 425 64
2019-11-10 17:35:58 GMT 31.904068 -15.734509 34,000 14 425 0
2019-11-10 17:35:49 GMT 31.888412 -15.739233 33,975 14 425 0
2019-11-10 17:35:39 GMT 31.867800 -15.745426 33,975 14 425 0
2019-11-10 17:35:28 GMT 31.847168 -15.751648 33,975 14 425 0
2019-11-10 17:35:19 GMT 31.823343 -15.758823 34,000 14 425 0
2019-11-10 17:35:10 GMT 31.813986 -15.761625 34,000 14 425 0
2019-11-10 17:35:07 GMT 31.807514 -15.763531 34,000 14 425 0
2019-11-10 17:35:02 GMT 31.797592 -15.766534 34,000 14 425 0
2019-11-10 17:34:56 GMT 31.786892 -15.769697 34,000 14 425 0
2019-11-10 17:34:52 GMT 31.780420 -15.771659 34,000 14 425 0
2019-11-10 17:34:48 GMT 31.770126 -15.774752 34,000 14 425 0
2019-11-10 17:34:39 GMT 31.752583 -15.779993 34,000 14 425 0
2019-11-10 17:34:36 GMT 31.748766 -15.781146 33,975 14 425 0
2019-11-10 17:34:32 GMT 31.741287 -15.783314 34,000 14 425 0
2019-11-10 17:34:29 GMT 31.736336 -15.784827 34,000 14 425 0
2019-11-10 17:34:26 GMT 31.730053 -15.786694 34,000 14 425 0
2019-11-10 17:34:20 GMT 31.716705 -15.790639 34,000 14 425 0
2019-11-10 17:34:16 GMT 31.710388 -15.792524 34,000 14 425 0
2019-11-10 17:34:09 GMT 31.697046 -15.796527 33,975 14 425 0
2019-11-10 17:34:06 GMT 31.691345 -15.798232 33,975 14 425 0
2019-11-10 17:33:57 GMT 31.672256 -15.803941 34,000 14 425 0
2019-11-10 17:33:46 GMT 31.652985 -15.809703 34,000 14 425 0
2019-11-10 17:33:39 GMT 31.638483 -15.813995 33,975 14 425 64
2019-11-10 17:33:35 GMT 31.632944 -15.815698 33,975 14 425 0
2019-11-10 17:33:28 GMT 31.618790 -15.819882 33,975 14 425 0
2019-11-10 17:33:16 GMT 31.594162 -15.827206 34,000 14 425 0
2019-11-10 17:33:07 GMT 31.576813 -15.832376 33,975 14 426 0
2019-11-10 17:33:04 GMT 31.573915 -15.833276 33,975 14 426 0
2019-11-10 17:32:54 GMT 31.554457 -15.839099 33,975 14 426 0
2019-11-10 17:32:44 GMT 31.535324 -15.844812 34,000 14 426 0
2019-11-10 17:32:34 GMT 31.516191 -15.850470 34,000 14 426 0
2019-11-10 17:32:25 GMT 31.496475 -15.856341 33,975 14 426 0
2019-11-10 17:32:14 GMT 31.476379 -15.862319 34,000 14 427 0
2019-11-10 17:32:04 GMT 31.457611 -15.867866 34,000 14 427 0
2019-11-10 17:31:53 GMT 31.436325 -15.874221 34,000 14 427 0
2019-11-10 17:31:44 GMT 31.418518 -15.879499 34,000 14 427 0
2019-11-10 17:31:37 GMT 31.407583 -15.882770 34,000 14 427 0
2019-11-10 17:31:33 GMT 31.398605 -15.885477 34,000 14 427 0
2019-11-10 17:31:22 GMT 31.378052 -15.891616 33,975 14 427 0
2019-11-10 17:31:13 GMT 31.359650 -15.897109 33,975 14 428 0
2019-11-10 17:31:06 GMT 31.348114 -15.900556 33,975 14 428 0
2019-11-10 17:31:03 GMT 31.340057 -15.902979 33,975 14 428 0
2019-11-10 17:30:52 GMT 31.318726 -15.909280 34,000 14 428 0
2019-11-10 17:30:46 GMT 31.309080 -15.912158 34,000 14 428 0
2019-11-10 17:30:42 GMT 31.300644 -15.914666 34,000 14 429 0
2019-11-10 17:30:31 GMT 31.279659 -15.920837 34,000 14 429 0
2019-11-10 17:30:22 GMT 31.261923 -15.926056 34,000 14 429 0
2019-11-10 17:30:12 GMT 31.241318 -15.932168 33,975 14 429 0
2019-11-10 17:30:06 GMT 31.230881 -15.935238 34,000 14 430 0
2019-11-10 17:30:03 GMT 31.224308 -15.937152 34,000 14 430 0
2019-11-10 17:29:51 GMT 31.201355 -15.943963 34,000 14 430 0
2019-11-10 17:29:45 GMT 31.191513 -15.946871 34,000 14 430 0
2019-11-10 17:29:41 GMT 31.182083 -15.949671 34,000 14 430 0
2019-11-10 17:29:30 GMT 31.161026 -15.955918 34,000 14 430 0
2019-11-10 17:29:20 GMT 31.142670 -15.961304 34,000 14 430 0
2019-11-10 17:29:11 GMT 31.124687 -15.966595 34,000 14 430 0
2019-11-10 17:28:59 GMT 31.101883 -15.973313 34,000 14 430 0
2019-11-10 17:28:54 GMT 31.092983 -15.975934 34,000 14 430 0
2019-11-10 17:28:50 GMT 31.083710 -15.978645 34,000 14 430 0
2019-11-10 17:28:44 GMT 31.072687 -15.981866 34,000 14 430 0
2019-11-10 17:28:40 GMT 31.062447 -15.984888 34,000 14 430 0
2019-11-10 17:28:29 GMT 31.044058 -15.990216 34,000 14 430 0
2019-11-10 17:28:18 GMT 31.023016 -15.996368 34,000 14 430 0
2019-11-10 17:28:13 GMT 31.013939 -15.999005 34,000 14 429 0
2019-11-10 17:28:09 GMT 31.004333 -16.001856 34,000 14 429 0
2019-11-10 17:27:58 GMT 30.984650 -16.007671 34,000 14 428 0
2019-11-10 17:27:48 GMT 30.964050 -16.013596 34,000 11 429 0
2019-11-10 17:27:38 GMT 30.944298 -16.017902 34,000 8 429 0
2019-11-10 17:27:27 GMT 30.924093 -16.020813 33,975 5 430 0
2019-11-10 17:27:19 GMT 30.906729 -16.022076 34,000 0 432 0
2019-11-10 17:27:16 GMT 30.902115 -16.022160 34,000 0 433 0
2019-11-10 17:27:11 GMT 30.891861 -16.022053 34,000 359 434 0
2019-11-10 17:27:08 GMT 30.884216 -16.021891 34,000 359 433 0
2019-11-10 17:27:01 GMT 30.871811 -16.021675 34,000 0 433 0
2019-11-10 17:26:57 GMT 30.863575 -16.021473 34,000 0 433 0
2019-11-10 17:26:50 GMT 30.849930 -16.021244 34,000 0 433 0
2019-11-10 17:26:46 GMT 30.840300 -16.021032 34,000 0 433 0
2019-11-10 17:26:38 GMT 30.814270 -16.020544 34,000 0 432 0
2019-11-10 17:26:30 GMT 30.809875 -16.020435 34,000 359 432 0
2019-11-10 17:26:26 GMT 30.800034 -16.020222 34,000 0 432 0
2019-11-10 17:26:18 GMT 30.784203 -16.019934 34,000 359 432 0
2019-11-10 17:26:10 GMT 30.757622 -16.019384 33,975 359 432 0
2019-11-10 17:26:04 GMT 30.757622 -16.019384 33,975 359 432 0
2019-11-10 17:25:56 GMT 30.740583 -16.018999 33,975 359 432 0
2019-11-10 17:25:49 GMT 30.728394 -16.018766 33,975 359 432 0
2019-11-10 17:25:45 GMT 30.720194 -16.018616 33,975 0 432 0
2019-11-10 17:25:36 GMT 30.701620 -16.018230 34,000 0 431 0
2019-11-10 17:25:33 GMT 30.693832 -16.018066 34,000 0 431 0
2019-11-10 17:25:29 GMT 30.687422 -16.017958 34,000 0 431 0
2019-11-10 17:25:25 GMT 30.679415 -16.017847 34,000 0 431 0
2019-11-10 17:25:19 GMT 30.667217 -16.017572 33,975 359 431 0
2019-11-10 17:25:16 GMT 30.660654 -16.017462 33,975 359 431 0
2019-11-10 17:25:05 GMT 30.638866 -16.017023 34,000 359 431 0
2019-11-10 17:24:54 GMT 30.614845 -16.016474 34,000 359 431 0
2019-11-10 17:24:46 GMT 30.599075 -16.016182 34,000 359 431 0
2019-11-10 17:24:38 GMT 30.585297 -16.015911 34,000 359 431 0
2019-11-10 17:24:33 GMT 30.575729 -16.015697 34,000 0 431 0
2019-11-10 17:24:27 GMT 30.552326 -16.015265 34,000 0 431 0
2019-11-10 17:24:22 GMT 30.552326 -16.015265 34,000 0 431 0
2019-11-10 17:24:17 GMT 30.544144 -16.015104 34,000 0 431 0
2019-11-10 17:24:13 GMT 30.534348 -16.014889 34,000 0 431 0
2019-11-10 17:24:05 GMT 30.510569 -16.014441 34,000 0 432 0
2019-11-10 17:23:55 GMT 30.498413 -16.014242 34,000 0 432 0
2019-11-10 17:23:46 GMT 30.483011 -16.013947 34,000 0 432 0
2019-11-10 17:23:42 GMT 30.474213 -16.013727 34,000 0 432 0
2019-11-10 17:23:36 GMT 30.456207 -16.013380 34,000 0 432 0
2019-11-10 17:23:25 GMT 30.439819 -16.013111 33,975 0 432 0
2019-11-10 17:23:22 GMT 30.430023 -16.012896 34,000 359 432 0
2019-11-10 17:23:14 GMT 30.416428 -16.012627 34,000 359 432 -64
2019-11-10 17:23:05 GMT 30.400818 -16.012304 34,000 359 432 0
2019-11-10 17:23:02 GMT 30.394592 -16.012196 34,000 359 432 0
2019-11-10 17:22:54 GMT 30.371193 -16.011694 34,000 359 432 64
2019-11-10 17:22:51 GMT 30.371193 -16.011694 33,975 359 432 0
2019-11-10 17:22:43 GMT 30.354813 -16.011389 33,975 359 432 0
2019-11-10 17:22:32 GMT 30.334763 -16.010958 34,000 359 433 0
2019-11-10 17:22:22 GMT 30.314119 -16.010487 33,975 359 433 0
2019-11-10 17:22:19 GMT 30.307297 -16.010311 33,975 359 433 0
2019-11-10 17:22:13 GMT 30.295303 -16.010042 34,000 359 433 -64
2019-11-10 17:22:10 GMT 30.289261 -16.009937 34,000 359 433 -64
2019-11-10 17:22:04 GMT 30.277250 -16.009663 34,000 359 433 0
2019-11-10 17:22:01 GMT 30.272003 -16.009558 34,000 359 433 0
2019-11-10 17:21:51 GMT 30.251972 -16.009113 34,000 359 433 0
2019-11-10 17:21:41 GMT 30.226927 -16.008617 34,000 359 433 64
2019-11-10 17:21:30 GMT 30.209290 -16.008265 34,000 0 433 0
2019-11-10 17:21:23 GMT 30.195236 -16.007996 34,000 0 433 0
2019-11-10 17:21:20 GMT 30.188828 -16.007889 34,000 0 433 0
2019-11-10 17:21:10 GMT 30.168179 -16.007521 34,000 0 433 0
2019-11-10 17:20:59 GMT 30.147741 -16.007191 33,975 0 433 0
2019-11-10 17:20:52 GMT 30.133495 -16.006914 33,975 0 433 0
2019-11-10 17:20:49 GMT 30.127258 -16.006811 33,975 0 433 0
2019-11-10 17:20:42 GMT 30.112827 -16.006531 34,000 0 433 0
2019-11-10 17:20:39 GMT 30.106821 -16.006420 34,000 0 433 0
2019-11-10 17:20:32 GMT 30.092789 -16.006218 34,000 0 433 0
2019-11-10 17:20:28 GMT 30.085546 -16.006037 34,000 359 433 0
2019-11-10 17:20:21 GMT 30.065689 -16.005627 33,975 359 434 -64
2019-11-10 17:20:18 GMT 30.044767 -16.005213 33,975 359 434 -64
2019-11-10 17:20:09 GMT 30.044767 -16.005213 33,975 0 434 64
2019-11-10 17:20:01 GMT 30.030304 -16.004927 33,975 359 434 0
2019-11-10 17:19:58 GMT 30.024284 -16.004827 34,000 0 434 0
2019-11-10 17:19:50 GMT 30.009613 -16.004496 34,000 359 434 0
2019-11-10 17:19:47 GMT 30.003387 -16.004387 34,000 0 434 0
2019-11-10 17:19:40 GMT 29.989517 -16.004118 34,000 0 434 64
2019-11-10 17:19:34 GMT 29.977266 -16.003895 34,000 0 434 64
2019-11-10 17:19:29 GMT 29.966606 -16.003674 33,975 359 434 64
2019-11-10 17:19:25 GMT 29.955551 -16.003418 33,975 359 435 0
2019-11-10 17:19:15 GMT 29.938843 -16.003096 33,975 359 435 0
2019-11-10 17:19:09 GMT 29.926529 -16.002771 33,975 359 435 0
2019-11-10 17:19:06 GMT 29.920715 -16.002665 33,975 359 435 0
2019-11-10 17:18:59 GMT 29.898733 -16.002178 34,000 359 435 0
2019-11-10 17:18:49 GMT 29.886024 -16.001909 34,000 359 435 64
2019-11-10 17:18:45 GMT 29.877960 -16.001745 34,000 359 435 64
2019-11-10 17:18:35 GMT 29.855988 -16.001270 33,975 359 436 0
2019-11-10 17:18:28 GMT 29.844269 -16.001005 33,975 359 436 0
2019-11-10 17:18:22 GMT 29.830536 -16.000742 34,000 359 436 0
2019-11-10 17:18:18 GMT 29.817825 -16.000456 34,000 0 436 0
2019-11-10 17:18:08 GMT 29.803253 -16.000214 34,000 0 436 0
2019-11-10 17:18:04 GMT 29.795387 -16.000078 34,000 0 436 0
2019-11-10 17:17:56 GMT 29.777023 -15.999791 34,000 0 435 -128
2019-11-10 17:17:46 GMT 29.758896 -15.999474 33,975 0 434 640
2019-11-10 17:17:42 GMT 29.750656 -15.999369 33,925 0 434 896
2019-11-10 17:17:37 GMT 29.732168 -15.999056 33,825 0 434 896
2019-11-10 17:17:33 GMT 29.732168 -15.999056 33,800 0 434 960
2019-11-10 17:17:25 GMT 29.716049 -15.998735 33,675 0 434 896
2019-11-10 17:17:16 GMT 29.699396 -15.998463 33,550 0 434 960
2019-11-10 17:17:13 GMT 29.692383 -15.998312 33,500 0 434 960
2019-11-10 17:17:05 GMT 29.674850 -15.997995 33,375 359 434 960
2019-11-10 17:16:54 GMT 29.654160 -15.997573 31,900 359 443 1216
2019-11-10 17:16:46 GMT 29.638046 -15.997256 33,000 359 436 1600
2019-11-10 17:16:43 GMT 29.632370 -15.997150 32,825 359 443 1408
2019-11-10 17:16:34 GMT 29.591349 -15.996255 32,625 359 443 1408
2019-11-10 17:16:24 GMT 29.591349 -15.996255 32,400 359 441 1472
2019-11-10 17:16:13 GMT 29.554688 -15.995513 32,125 359 443 1408
2019-11-10 17:16:05 GMT 29.554688 -15.995513 31,975 359 443 1280
2019-11-10 17:16:01 GMT 29.545624 -15.995354 31,925 359 443 1216
2019-11-10 17:15:52 GMT 29.526535 -15.994932 31,700 359 444 1152
2019-11-10 17:15:45 GMT 29.512535 -15.994640 31,575 359 444 1152
2019-11-10 17:15:42 GMT 29.504343 -15.994478 31,500 359 444 1152
2019-11-10 17:15:34 GMT 29.491356 -15.994209 31,375 359 444 1152
2019-11-10 17:15:30 GMT 29.482956 -15.994034 31,275 359 443 1088
2019-11-10 17:15:24 GMT 29.470413 -15.993770 31,200 359 443 1088
2019-11-10 17:15:21 GMT 29.464680 -15.993616 31,150 359 443 1088
2019-11-10 17:15:14 GMT 29.449036 -15.993294 31,000 359 443 1088
2019-11-10 17:15:03 GMT 29.426514 -15.992819 30,800 359 442 1088
2019-11-10 17:14:55 GMT 29.409714 -15.992449 30,650 359 442 1088
2019-11-10 17:14:52 GMT 29.401743 -15.992270 30,575 359 441 1024
2019-11-10 17:14:43 GMT 29.386597 -15.991974 30,450 0 441 1088
2019-11-10 17:14:31 GMT 29.361053 -15.991499 30,250 0 441 1216
2019-11-10 17:14:22 GMT 29.343933 -15.991182 29,875 359 440 1280
2019-11-10 17:14:10 GMT 29.319250 -15.990708 29,825 359 440 1216
2019-11-10 17:14:00 GMT 29.277121 -15.989847 29,175 359 439 1344
2019-11-10 17:13:49 GMT 29.277121 -15.989847 29,400 359 439 1408
2019-11-10 17:13:40 GMT 29.257141 -15.989439 29,150 359 439 1536
2019-11-10 17:13:29 GMT 29.235970 -15.988985 28,950 359 440 1536
2019-11-10 17:13:19 GMT 29.212692 -15.988500 28,675 0 441 1664
2019-11-10 17:13:09 GMT 29.194305 -15.988177 28,350 0 442 1664
2019-11-10 17:12:58 GMT 29.168884 -15.987696 28,025 0 443 1216
2019-11-10 17:12:49 GMT 29.152267 -15.987431 27,875 0 441 1024
2019-11-10 17:12:42 GMT 29.129425 -15.987009 27,825 0 440 1280
2019-11-10 17:12:38 GMT 29.129425 -15.987009 27,650 0 440 1280
2019-11-10 17:12:28 GMT 29.110044 -15.986615 27,450 359 439 1408
2019-11-10 17:12:19 GMT 29.092346 -15.986269 27,225 359 439 1344
2019-11-10 17:12:16 GMT 29.085846 -15.986164 27,175 359 438 1344
2019-11-10 17:12:09 GMT 29.072245 -15.985861 27,025 359 438 1536
2019-11-10 17:12:06 GMT 29.066528 -15.985741 26,975 359 438 1600
2019-11-10 17:11:57 GMT 29.048271 -15.985323 26,775 359 438 1536
2019-11-10 17:11:49 GMT 29.023924 -15.984784 26,400 1 438 1728
2019-11-10 17:11:37 GMT 28.996811 -15.986058 26,025 4 436 1984
2019-11-10 17:11:26 GMT 28.982346 -15.987801 25,800 8 436 1600
2019-11-10 17:11:17 GMT 28.966200 -15.990816 25,600 10 434 1856
2019-11-10 17:11:11 GMT 28.954514 -15.993347 25,425 10 435 1856
2019-11-10 17:11:08 GMT 28.948603 -15.994586 25,325 10 435 1792
2019-11-10 17:11:02 GMT 28.935287 -15.997467 25,125 10 435 1856
2019-11-10 17:10:56 GMT 28.924988 -15.999685 25,025 10 435 1856
2019-11-10 17:10:46 GMT 28.905350 -16.003910 24,700 10 435 1792
2019-11-10 17:10:35 GMT 28.884109 -16.008507 24,400 10 434 1472
2019-11-10 17:10:27 GMT 28.859985 -16.013681 24,100 10 433 1536
2019-11-10 17:10:23 GMT 28.859985 -16.013681 24,100 10 433 1536
2019-11-10 17:10:16 GMT 28.845795 -16.016747 23,825 10 430 1536
2019-11-10 17:10:12 GMT 28.837921 -16.018383 23,825 10 430 1536
2019-11-10 17:10:05 GMT 28.823795 -16.021404 23,650 10 429 1536
2019-11-10 17:09:59 GMT 28.812437 -16.023829 23,525 10 428 1472
2019-11-10 17:09:54 GMT 28.800522 -16.026360 23,375 10 427 1600
2019-11-10 17:09:49 GMT 28.793152 -16.027945 23,275 10 426 1536
2019-11-10 17:09:45 GMT 28.786554 -16.029375 23,200 10 425 1408
2019-11-10 17:09:40 GMT 28.775288 -16.031799 23,050 10 424 1344
2019-11-10 17:09:35 GMT 28.766235 -16.033701 22,950 10 422 1536
2019-11-10 17:09:30 GMT 28.747171 -16.037830 22,725 10 420 1472
2019-11-10 17:09:25 GMT 28.747171 -16.037830 22,700 10 420 1472
2019-11-10 17:09:20 GMT 28.737030 -16.039986 22,575 10 418 1536
2019-11-10 17:09:15 GMT 28.727875 -16.041941 22,475 10 417 1664
2019-11-10 17:09:09 GMT 28.717621 -16.044159 22,325 10 416 1600
2019-11-10 17:09:05 GMT 28.708282 -16.046165 22,200 10 415 1472
2019-11-10 17:08:59 GMT 28.697733 -16.048441 22,075 10 414 1344
2019-11-10 17:08:54 GMT 28.689213 -16.050270 21,975 10 412 1408
2019-11-10 17:08:49 GMT 28.669601 -16.054510 21,700 10 409 1472
2019-11-10 17:08:44 GMT 28.669601 -16.054510 21,700 10 409 1472
2019-11-10 17:08:39 GMT 28.659531 -16.056623 21,575 10 407 1472
2019-11-10 17:08:34 GMT 28.650808 -16.058512 21,475 10 406 1664
2019-11-10 17:08:28 GMT 28.640671 -16.060692 21,325 10 404 1472
2019-11-10 17:08:24 GMT 28.631813 -16.062605 21,200 10 402 1280
2019-11-10 17:08:18 GMT 28.620987 -16.064917 21,075 10 400 1600
2019-11-10 17:08:13 GMT 28.612656 -16.066713 20,975 10 398 1728
2019-11-10 17:08:07 GMT 28.602448 -16.068878 20,800 10 396 1856
2019-11-10 17:08:03 GMT 28.594339 -16.070627 20,675 10 396 1984
2019-11-10 17:07:57 GMT 28.584412 -16.072786 20,500 10 395 2112
2019-11-10 17:07:53 GMT 28.575577 -16.074688 20,325 10 394 2112
2019-11-10 17:07:46 GMT 28.564592 -16.077038 20,125 10 394 2112
2019-11-10 17:07:42 GMT 28.557051 -16.078653 19,975 10 393 2240
2019-11-10 17:07:37 GMT 28.547333 -16.080709 19,775 10 393 2112
2019-11-10 17:07:31 GMT 28.534800 -16.083391 19,550 10 392 2112
2019-11-10 17:07:27 GMT 28.529074 -16.084631 19,450 10 391 2240
2019-11-10 17:07:21 GMT 28.518723 -16.086784 19,225 10 391 2176
2019-11-10 17:07:16 GMT 28.510872 -16.088453 19,075 10 390 2112
2019-11-10 17:07:12 GMT 28.499268 -16.090904 18,850 10 389 2048
2019-11-10 17:07:06 GMT 28.492172 -16.092382 18,725 10 388 2112
2019-11-10 17:07:00 GMT 28.480799 -16.094809 18,575 10 388 2368
2019-11-10 17:06:56 GMT 28.474457 -16.096132 18,350 10 388 2496
2019-11-10 17:06:51 GMT 28.463287 -16.098511 18,100 10 387 2112
2019-11-10 17:06:46 GMT 28.456406 -16.099924 17,975 10 387 1984
2019-11-10 17:06:39 GMT 28.444069 -16.102564 17,825 10 385 2048
2019-11-10 17:06:35 GMT 28.438248 -16.103790 17,650 10 384 1984
2019-11-10 17:06:30 GMT 28.426519 -16.106279 17,425 10 382 1856
2019-11-10 17:06:25 GMT 28.420029 -16.107647 17,325 10 381 1920
2019-11-10 17:06:19 GMT 28.408922 -16.109997 17,175 10 380 1984
2019-11-10 17:06:15 GMT 28.402359 -16.111397 17,000 10 378 2176
2019-11-10 17:06:08 GMT 28.390778 -16.113880 16,850 10 377 2176
2019-11-10 17:06:04 GMT 28.384277 -16.115253 16,650 10 376 1920
2019-11-10 17:05:58 GMT 28.373123 -16.117643 16,425 10 374 2240
2019-11-10 17:05:54 GMT 28.366980 -16.118937 16,300 10 373 2624
2019-11-10 17:05:48 GMT 28.355574 -16.121412 16,025 10 373 2368
2019-11-10 17:05:43 GMT 28.347061 -16.123228 15,850 10 372 2048
2019-11-10 17:05:40 GMT 28.342346 -16.124231 15,775 10 371 1984
2019-11-10 17:05:37 GMT 28.335556 -16.125723 15,625 10 369 2368
2019-11-10 17:05:29 GMT 28.324951 -16.128035 15,400 10 369 2560
2019-11-10 17:05:26 GMT 28.318705 -16.129383 15,250 10 368 2624
2019-11-10 17:05:19 GMT 28.300268 -16.133369 14,775 10 368 2816
2019-11-10 17:05:09 GMT 28.290541 -16.135523 14,500 10 368 2944
2019-11-10 17:05:05 GMT 28.283464 -16.137032 14,300 10 368 2624
2019-11-10 17:04:59 GMT 28.273222 -16.139238 14,050 10 368 3200
2019-11-10 17:04:56 GMT 28.265671 -16.140818 13,800 10 369 3392
2019-11-10 17:04:48 GMT 28.255875 -16.142878 13,500 10 370 3136
2019-11-10 17:04:43 GMT 28.246902 -16.144672 13,250 9 371 2944
2019-11-10 17:04:38 GMT 28.238401 -16.146240 13,025 9 371 2880
2019-11-10 17:04:33 GMT 28.226717 -16.148556 12,725 15 370 2304
2019-11-10 17:04:28 GMT 28.221548 -16.150009 12,600 17 368 2176
2019-11-10 17:04:24 GMT 28.214035 -16.152756 12,475 22 365 2304
2019-11-10 17:04:17 GMT 28.204422 -16.157455 12,250 28 363 2560
2019-11-10 17:04:14 GMT 28.197922 -16.161470 12,075 32 362 2624
2019-11-10 17:04:07 GMT 28.190546 -16.167028 11,900 39 359 2176
2019-11-10 17:04:03 GMT 28.184074 -16.173168 11,725 44 355 2240
2019-11-10 17:03:57 GMT 28.178009 -16.180010 11,575 50 352 2048
2019-11-10 17:03:52 GMT 28.172901 -16.187223 11,400 57 351 1920
2019-11-10 17:03:47 GMT 28.168247 -16.196001 11,300 66 344 1088
2019-11-10 17:03:42 GMT 28.165220 -16.203918 11,225 68 339 960
2019-11-10 17:03:37 GMT 28.162308 -16.212704 11,150 69 332 1088
2019-11-10 17:03:31 GMT 28.158937 -16.222982 11,050 69 326 960
2019-11-10 17:03:26 GMT 28.156906 -16.229237 10,975 69 321 832
2019-11-10 17:03:21 GMT 28.153610 -16.239271 10,875 69 314 1152
2019-11-10 17:03:16 GMT 28.151596 -16.245453 10,825 69 310 960
2019-11-10 17:03:10 GMT 28.148529 -16.254801 10,725 69 301 896
2019-11-10 17:03:06 GMT 28.146646 -16.260572 10,675 69 296 1280
2019-11-10 17:03:01 GMT 28.143448 -16.270382 10,525 69 289 1088
2019-11-10 17:02:55 GMT 28.141760 -16.275654 10,450 69 284 768
2019-11-10 17:02:49 GMT 28.138779 -16.284643 10,375 69 275 1280
2019-11-10 17:02:45 GMT 28.137337 -16.289169 10,300 70 272 2176
2019-11-10 17:02:40 GMT 28.134201 -16.298746 10,025 70 269 2624
2019-11-10 17:02:35 GMT 28.132874 -16.302866 9,900 69 268 2752
2019-11-10 17:02:28 GMT 28.129841 -16.312328 9,575 69 264 2624
2019-11-10 17:02:24 GMT 28.127934 -16.318197 9,375 69 265 2624
2019-11-10 17:02:17 GMT 28.124302 -16.329130 9,025 69 263 2624
2019-11-10 17:02:13 GMT 28.123556 -16.331499 8,950 69 263 2688
2019-11-10 17:02:08 GMT 28.120996 -16.339201 8,700 69 261 2880
2019-11-10 17:01:58 GMT 28.116573 -16.352503 8,225 69 259 2688
2019-11-10 17:01:47 GMT 28.112183 -16.365616 7,775 69 255 3072
2019-11-10 17:01:37 GMT 28.108007 -16.378193 7,275 69 251 2624

Making use of Plane Finder data

You are free to use the raw flight data, aircraft information and images provided in this report for your own purposes provided the data is correctly attributed to Plane Finder. We ask that you please credit Plane Finder and link to planefinder.net in close proximity to the content.

Optionally one of the following logos (no smaller then 150x24px) can be used and must link to planefinder.net

Embedding the Plane Finder map

You are welcome to embed the Plane Finder playback map on your website to offer visitors a more interactive experience. We suggest using the following HTML code:

<iframe src="//planefinder.net/data/report/DY4272-EI-FJJ-7700-squawk-2019-11-10/map" width="800" height="600" seamless="seamless"></iframe>

Where our data comes from

Plane Finder has a global network of data feeds and antenna radars that receive data broadcast directly from aircraft. The primary technologies used are ADS-B and MLAT. We also show feeds from the FAA and a FLARM glider feed.

Click here to find out more about the Plane Finder network.

How we collect our data